NCAR-RAP Real-Time Weather Data

Output produced by METARs form (06 May 2021  17:10 UTC)
found at http://weather.rap.ucar.edu/surface/
 
KPHD 061653Z AUTO 30005KT 10SM OVC043 12/03 A3012 RMK AO2 SLP205 T01170033
KPHD 061553Z AUTO 00000KT 10SM FEW049 12/03 A3013 RMK AO2 SLP208 T01220028
KPHD 061453Z AUTO 10SM CLR 12/04 A3016 RMK AO2 SLP215 T01170039 56005
KPHD 061353Z AUTO VRB03KT 10SM CLR 10/04 A3016 RMK AO2 SLP217 T01000044
KPHD 061318Z AUTO 00000KT 7SM SCT002 06/06 A3016 RMK AO2 T00610061
KPHD 061259Z AUTO 00000KT 4SM BR BKN002 06/06 A3015 RMK AO2 T00560056
KPHD 061251Z AUTO 00000KT 2 1/2SM BR OVC002 05/04 A3015 RMK AO2 SLP216 T00500044
KPHD 061250Z AUTO 00000KT 2SM BR OVC002 04/04 A3016 RMK AO2
KPHD 061243Z AUTO 00000KT 1SM BR OVC002 04/04 A3016 RMK AO2 T00390039
KPHD 061207Z AUTO 00000KT 1/4SM FG VV002 03/03 A3017 RMK AO2 T00330033
KPHD 061153Z AUTO 00000KT M1/4SM FG VV002 03/03 A3017 RMK AO2 SLP222 70001 T00330033 10033 20017 53014
KPHD 061053Z AUTO 00000KT M1/4SM FG VV002 02/02 A3015 RMK AO2 SLP214 T00220022
KPHD 061022Z AUTO 00000KT M1/4SM FG VV002 02/02 A3013 RMK AO2 T00170017
KPHD 060953Z AUTO 04003KT 1/4SM FG VV002 02/02 A3013 RMK AO2 SLP208 T00220022
KPHD 060853Z AUTO 00000KT 1/4SM FG VV002 02/02 A3013 RMK AO2 SLP207 T00220022 53002
KPHD 060753Z AUTO 00000KT 1/4SM FG VV002 03/03 A3013 RMK AO2 SLP207 T00280028
KPHD 060731Z AUTO 00000KT 1/4SM FG VV002 03/03 A3013 RMK AO2 T00280028
KPHD 060704Z AUTO 00000KT M1/4SM FG VV002 03/03 A3012 RMK AO2 T00280028
KPHD 060653Z AUTO 00000KT 1/4SM FG VV002 03/03 A3012 RMK AO2 SLP206 T00280028
KPHD 060638Z AUTO 00000KT 1/4SM FG OVC002 03/03 A3012 RMK AO2 T00280028
KPHD 060633Z AUTO 00000KT 1SM BR OVC002 03/03 A3012 RMK AO2 VIS 1/4V5 T00280028
KPHD 060603Z AUTO 00000KT 4SM BR BKN002 03/03 A3013 RMK AO2 T00280028
KPHD 060601Z AUTO 00000KT 1 1/2SM BR BKN002 03/03 A3013 RMK AO2 T00280028
KPHD 060553Z AUTO 00000KT 1/2SM FG VV002 03/03 A3012 RMK AO2 SLP206 T00280028 10089 20028 56003
KPHD 060550Z AUTO 00000KT 3/4SM BR VV002 03/03 A3012 RMK AO2
KPHD 060548Z AUTO 00000KT 1 1/2SM BR FEW002 03/03 A3013 RMK AO2
KPHD 060540Z AUTO 00000KT 9SM FEW002 03/03 A3012 RMK AO2 T00280028
KPHD 060453Z AUTO 00000KT 10SM CLR 03/03 A3012 RMK AO2 SLP205 T00330033 401440033
KPHD 060353Z AUTO 00000KT 10SM CLR 04/04 A3013 RMK AO2 SLP206 T00440039
KPHD 060253Z AUTO 00000KT 10SM OVC055 06/05 A3013 RMK AO2 SLP208 T00610050 53014
KPHD 060153Z AUTO 00000KT 10SM OVC055 07/04 A3012 RMK AO2 SLP204 T00720044